sensor_id;sensor_type;location;lat;lon;timestamp;P1;durP1;ratioP1;P2;durP2;ratioP2
12947;SDS011;6539;49.476;8.484;2022-10-26T00:01:15;12.80;;;5.97;;
12947;SDS011;6539;49.476;8.484;2022-10-26T00:03:41;10.40;;;5.23;;
12947;SDS011;6539;49.476;8.484;2022-10-26T00:06:16;13.00;;;5.80;;
12947;SDS011;6539;49.476;8.484;2022-10-26T00:08:44;17.53;;;6.67;;
12947;SDS011;6539;49.476;8.484;2022-10-26T00:11:11;15.07;;;6.60;;
12947;SDS011;6539;49.476;8.484;2022-10-26T00:13:42;15.57;;;5.73;;
12947;SDS011;6539;49.476;8.484;2022-10-26T00:16:10;13.77;;;6.27;;
12947;SDS011;6539;49.476;8.484;2022-10-26T00:18:45;12.33;;;6.30;;
12947;SDS011;6539;49.476;8.484;2022-10-26T00:21:13;11.60;;;6.57;;
12947;SDS011;6539;49.476;8.484;2022-10-26T00:23:43;17.90;;;6.80;;
12947;SDS011;6539;49.476;8.484;2022-10-26T00:26:09;16.20;;;6.63;;
12947;SDS011;6539;49.476;8.484;2022-10-26T00:28:40;13.63;;;7.17;;
12947;SDS011;6539;49.476;8.484;2022-10-26T00:31:07;12.30;;;6.50;;
12947;SDS011;6539;49.476;8.484;2022-10-26T00:33:39;14.47;;;6.03;;
12947;SDS011;6539;49.476;8.484;2022-10-26T00:36:06;12.07;;;6.00;;
12947;SDS011;6539;49.476;8.484;2022-10-26T00:38:33;14.07;;;5.67;;
12947;SDS011;6539;49.476;8.484;2022-10-26T00:41:00;8.97;;;5.23;;
12947;SDS011;6539;49.476;8.484;2022-10-26T00:45:54;8.20;;;4.40;;
12947;SDS011;6539;49.476;8.484;2022-10-26T00:48:35;11.43;;;5.47;;
12947;SDS011;6539;49.476;8.484;2022-10-26T00:51:16;10.57;;;5.17;;
12947;SDS011;6539;49.476;8.484;2022-10-26T00:53:57;9.27;;;5.27;;
12947;SDS011;6539;49.476;8.484;2022-10-26T00:56:28;11.03;;;5.57;;
12947;SDS011;6539;49.476;8.484;2022-10-26T00:59:01;10.47;;;5.33;;
12947;SDS011;6539;49.476;8.484;2022-10-26T01:01:30;10.10;;;5.50;;
12947;SDS011;6539;49.476;8.484;2022-10-26T01:04:00;11.53;;;6.20;;
12947;SDS011;6539;49.476;8.484;2022-10-26T01:06:29;10.23;;;5.60;;
12947;SDS011;6539;49.476;8.484;2022-10-26T01:08:59;11.43;;;5.83;;
12947;SDS011;6539;49.476;8.484;2022-10-26T01:11:25;10.63;;;5.97;;
12947;SDS011;6539;49.476;8.484;2022-10-26T01:13:51;10.83;;;5.50;;
12947;SDS011;6539;49.476;8.484;2022-10-26T01:16:40;14.90;;;6.00;;
12947;SDS011;6539;49.476;8.484;2022-10-26T01:25:24;8.23;;;5.13;;
12947;SDS011;6539;49.476;8.484;2022-10-26T01:31:41;11.93;;;5.17;;
12947;SDS011;6539;49.476;8.484;2022-10-26T01:34:33;9.17;;;5.83;;
12947;SDS011;6539;49.476;8.484;2022-10-26T01:37:23;10.60;;;5.37;;
12947;SDS011;6539;49.476;8.484;2022-10-26T01:40:08;9.83;;;5.77;;
12947;SDS011;6539;49.476;8.484;2022-10-26T01:42:52;10.67;;;5.33;;
12947;SDS011;6539;49.476;8.484;2022-10-26T01:45:24;13.03;;;5.60;;
12947;SDS011;6539;49.476;8.484;2022-10-26T01:47:54;13.47;;;5.40;;
12947;SDS011;6539;49.476;8.484;2022-10-26T01:50:26;16.60;;;5.33;;
12947;SDS011;6539;49.476;8.484;2022-10-26T01:52:55;8.70;;;4.90;;
12947;SDS011;6539;49.476;8.484;2022-10-26T02:01:01;12.23;;;5.50;;
12947;SDS011;6539;49.476;8.484;2022-10-26T02:12:20;8.50;;;5.27;;
12947;SDS011;6539;49.476;8.484;2022-10-26T02:15:06;8.00;;;4.73;;
12947;SDS011;6539;49.476;8.484;2022-10-26T02:17:45;9.30;;;5.50;;
12947;SDS011;6539;49.476;8.484;2022-10-26T02:20:22;11.10;;;5.27;;
12947;SDS011;6539;49.476;8.484;2022-10-26T02:23:02;11.53;;;5.63;;
12947;SDS011;6539;49.476;8.484;2022-10-26T02:25:34;14.10;;;6.03;;
12947;SDS011;6539;49.476;8.484;2022-10-26T02:28:13;9.40;;;5.47;;
12947;SDS011;6539;49.476;8.484;2022-10-26T02:30:49;11.63;;;5.30;;
12947;SDS011;6539;49.476;8.484;2022-10-26T02:33:23;9.87;;;4.80;;
12947;SDS011;6539;49.476;8.484;2022-10-26T02:35:53;10.80;;;5.43;;
12947;SDS011;6539;49.476;8.484;2022-10-26T02:38:24;9.73;;;4.73;;
12947;SDS011;6539;49.476;8.484;2022-10-26T02:40:54;7.17;;;5.07;;
12947;SDS011;6539;49.476;8.484;2022-10-26T02:43:29;8.33;;;5.57;;
12947;SDS011;6539;49.476;8.484;2022-10-26T02:46:04;7.90;;;4.83;;
12947;SDS011;6539;49.476;8.484;2022-10-26T02:48:37;9.23;;;5.40;;
12947;SDS011;6539;49.476;8.484;2022-10-26T02:51:10;11.00;;;5.13;;
12947;SDS011;6539;49.476;8.484;2022-10-26T02:54:13;11.03;;;5.60;;
12947;SDS011;6539;49.476;8.484;2022-10-26T02:57:12;7.40;;;4.50;;
12947;SDS011;6539;49.476;8.484;2022-10-26T02:59:44;7.43;;;5.03;;
12947;SDS011;6539;49.476;8.484;2022-10-26T03:02:12;10.73;;;4.90;;
12947;SDS011;6539;49.476;8.484;2022-10-26T03:04:45;8.10;;;5.13;;
12947;SDS011;6539;49.476;8.484;2022-10-26T03:07:23;11.77;;;5.50;;
12947;SDS011;6539;49.476;8.484;2022-10-26T03:09:51;11.53;;;4.83;;
12947;SDS011;6539;49.476;8.484;2022-10-26T03:12:17;8.73;;;4.63;;
12947;SDS011;6539;49.476;8.484;2022-10-26T03:14:43;7.17;;;5.03;;
12947;SDS011;6539;49.476;8.484;2022-10-26T03:17:09;9.83;;;5.37;;
12947;SDS011;6539;49.476;8.484;2022-10-26T03:19:35;11.93;;;5.77;;
12947;SDS011;6539;49.476;8.484;2022-10-26T03:22:01;16.30;;;6.57;;
12947;SDS011;6539;49.476;8.484;2022-10-26T03:24:27;12.23;;;6.30;;
12947;SDS011;6539;49.476;8.484;2022-10-26T03:26:52;11.00;;;5.97;;
12947;SDS011;6539;49.476;8.484;2022-10-26T03:29:21;14.73;;;6.83;;
12947;SDS011;6539;49.476;8.484;2022-10-26T03:31:48;13.77;;;6.00;;
12947;SDS011;6539;49.476;8.484;2022-10-26T03:34:18;16.97;;;7.00;;
12947;SDS011;6539;49.476;8.484;2022-10-26T03:36:45;17.30;;;6.03;;
12947;SDS011;6539;49.476;8.484;2022-10-26T03:39:16;11.87;;;6.20;;
12947;SDS011;6539;49.476;8.484;2022-10-26T03:41:42;18.40;;;6.60;;
12947;SDS011;6539;49.476;8.484;2022-10-26T03:44:08;14.30;;;6.73;;
12947;SDS011;6539;49.476;8.484;2022-10-26T03:46:36;9.60;;;5.73;;
12947;SDS011;6539;49.476;8.484;2022-10-26T03:49:02;17.33;;;6.17;;
12947;SDS011;6539;49.476;8.484;2022-10-26T03:51:27;19.37;;;6.17;;
12947;SDS011;6539;49.476;8.484;2022-10-26T03:53:56;14.13;;;6.10;;
12947;SDS011;6539;49.476;8.484;2022-10-26T03:56:25;15.47;;;5.53;;
12947;SDS011;6539;49.476;8.484;2022-10-26T03:58:53;13.23;;;5.27;;
12947;SDS011;6539;49.476;8.484;2022-10-26T04:01:19;11.30;;;4.93;;
12947;SDS011;6539;49.476;8.484;2022-10-26T04:03:45;13.33;;;5.60;;
12947;SDS011;6539;49.476;8.484;2022-10-26T04:06:16;13.03;;;4.53;;
12947;SDS011;6539;49.476;8.484;2022-10-26T04:08:44;11.23;;;4.57;;
12947;SDS011;6539;49.476;8.484;2022-10-26T04:11:10;11.77;;;5.53;;
12947;SDS011;6539;49.476;8.484;2022-10-26T04:13:38;7.60;;;4.67;;
12947;SDS011;6539;49.476;8.484;2022-10-26T04:16:04;9.63;;;4.43;;
12947;SDS011;6539;49.476;8.484;2022-10-26T04:18:30;8.63;;;4.27;;
12947;SDS011;6539;49.476;8.484;2022-10-26T04:20:59;8.70;;;4.53;;
12947;SDS011;6539;49.476;8.484;2022-10-26T04:23:26;9.10;;;3.83;;
12947;SDS011;6539;49.476;8.484;2022-10-26T04:25:51;7.57;;;4.00;;
12947;SDS011;6539;49.476;8.484;2022-10-26T04:28:17;7.37;;;4.30;;
12947;SDS011;6539;49.476;8.484;2022-10-26T04:30:46;6.07;;;3.67;;
12947;SDS011;6539;49.476;8.484;2022-10-26T04:33:12;7.43;;;3.70;;
12947;SDS011;6539;49.476;8.484;2022-10-26T04:35:40;5.07;;;3.20;;
12947;SDS011;6539;49.476;8.484;2022-10-26T04:38:11;10.30;;;4.30;;
12947;SDS011;6539;49.476;8.484;2022-10-26T04:40:37;8.37;;;4.27;;
12947;SDS011;6539;49.476;8.484;2022-10-26T04:43:05;7.67;;;4.00;;
12947;SDS011;6539;49.476;8.484;2022-10-26T04:45:30;6.27;;;3.67;;
12947;SDS011;6539;49.476;8.484;2022-10-26T04:48:00;7.47;;;4.10;;
12947;SDS011;6539;49.476;8.484;2022-10-26T04:50:34;6.20;;;3.70;;
12947;SDS011;6539;49.476;8.484;2022-10-26T04:53:02;6.47;;;3.60;;
12947;SDS011;6539;49.476;8.484;2022-10-26T04:55:34;5.47;;;3.30;;
12947;SDS011;6539;49.476;8.484;2022-10-26T04:58:04;4.87;;;3.10;;
12947;SDS011;6539;49.476;8.484;2022-10-26T05:00:34;6.90;;;2.80;;
12947;SDS011;6539;49.476;8.484;2022-10-26T05:03:05;5.63;;;2.90;;
12947;SDS011;6539;49.476;8.484;2022-10-26T05:05:34;5.67;;;2.73;;
12947;SDS011;6539;49.476;8.484;2022-10-26T05:08:04;4.67;;;2.53;;
12947;SDS011;6539;49.476;8.484;2022-10-26T05:10:32;4.20;;;3.00;;
12947;SDS011;6539;49.476;8.484;2022-10-26T05:13:01;10.00;;;3.70;;
12947;SDS011;6539;49.476;8.484;2022-10-26T05:15:27;9.53;;;2.90;;
12947;SDS011;6539;49.476;8.484;2022-10-26T05:17:54;5.90;;;3.00;;
12947;SDS011;6539;49.476;8.484;2022-10-26T05:20:21;5.77;;;2.70;;
12947;SDS011;6539;49.476;8.484;2022-10-26T05:22:53;4.00;;;2.50;;
12947;SDS011;6539;49.476;8.484;2022-10-26T05:25:24;5.37;;;3.23;;
12947;SDS011;6539;49.476;8.484;2022-10-26T05:27:58;6.37;;;3.13;;
12947;SDS011;6539;49.476;8.484;2022-10-26T05:30:25;11.03;;;3.97;;
12947;SDS011;6539;49.476;8.484;2022-10-26T05:32:53;8.03;;;3.83;;
12947;SDS011;6539;49.476;8.484;2022-10-26T05:35:24;7.00;;;3.60;;
12947;SDS011;6539;49.476;8.484;2022-10-26T05:37:53;8.83;;;4.67;;
12947;SDS011;6539;49.476;8.484;2022-10-26T05:40:19;11.50;;;3.47;;
12947;SDS011;6539;49.476;8.484;2022-10-26T05:42:45;9.67;;;3.30;;
12947;SDS011;6539;49.476;8.484;2022-10-26T05:45:21;5.67;;;2.63;;
12947;SDS011;6539;49.476;8.484;2022-10-26T05:47:47;6.47;;;3.17;;
12947;SDS011;6539;49.476;8.484;2022-10-26T05:50:13;6.73;;;2.90;;
12947;SDS011;6539;49.476;8.484;2022-10-26T05:52:42;5.93;;;2.40;;
12947;SDS011;6539;49.476;8.484;2022-10-26T05:55:17;6.33;;;2.30;;
12947;SDS011;6539;49.476;8.484;2022-10-26T05:57:46;6.97;;;2.30;;
12947;SDS011;6539;49.476;8.484;2022-10-26T06:00:16;5.57;;;2.53;;
12947;SDS011;6539;49.476;8.484;2022-10-26T06:05:52;8.30;;;2.30;;
12947;SDS011;6539;49.476;8.484;2022-10-26T06:08:20;5.43;;;2.20;;
12947;SDS011;6539;49.476;8.484;2022-10-26T06:10:49;5.47;;;2.10;;
12947;SDS011;6539;49.476;8.484;2022-10-26T06:13:19;3.50;;;1.90;;
12947;SDS011;6539;49.476;8.484;2022-10-26T06:30:43;7.03;;;2.30;;
12947;SDS011;6539;49.476;8.484;2022-10-26T06:33:09;3.43;;;2.30;;
12947;SDS011;6539;49.476;8.484;2022-10-26T06:38:06;5.17;;;2.60;;
12947;SDS011;6539;49.476;8.484;2022-10-26T06:40:38;6.70;;;2.53;;
12947;SDS011;6539;49.476;8.484;2022-10-26T06:43:11;4.90;;;2.77;;
12947;SDS011;6539;49.476;8.484;2022-10-26T06:45:59;7.20;;;2.30;;
12947;SDS011;6539;49.476;8.484;2022-10-26T06:51:48;5.53;;;2.50;;
12947;SDS011;6539;49.476;8.484;2022-10-26T06:57:19;6.83;;;2.87;;
12947;SDS011;6539;49.476;8.484;2022-10-26T06:59:52;7.27;;;3.07;;
12947;SDS011;6539;49.476;8.484;2022-10-26T07:02:23;6.17;;;3.17;;
12947;SDS011;6539;49.476;8.484;2022-10-26T07:04:49;3.93;;;2.40;;
12947;SDS011;6539;49.476;8.484;2022-10-26T07:07:20;2.67;;;2.40;;
12947;SDS011;6539;49.476;8.484;2022-10-26T07:09:53;7.77;;;2.70;;
12947;SDS011;6539;49.476;8.484;2022-10-26T07:12:21;3.20;;;2.50;;
12947;SDS011;6539;49.476;8.484;2022-10-26T07:14:47;3.70;;;2.13;;
12947;SDS011;6539;49.476;8.484;2022-10-26T07:17:16;8.10;;;2.63;;
12947;SDS011;6539;49.476;8.484;2022-10-26T07:19:41;6.93;;;2.67;;
12947;SDS011;6539;49.476;8.484;2022-10-26T07:22:08;8.07;;;2.80;;
12947;SDS011;6539;49.476;8.484;2022-10-26T07:24:39;7.30;;;2.60;;
12947;SDS011;6539;49.476;8.484;2022-10-26T07:27:05;5.80;;;3.00;;
12947;SDS011;6539;49.476;8.484;2022-10-26T07:29:33;5.67;;;2.90;;
12947;SDS011;6539;49.476;8.484;2022-10-26T07:31:59;7.77;;;2.60;;
12947;SDS011;6539;49.476;8.484;2022-10-26T07:34:27;7.17;;;3.10;;
12947;SDS011;6539;49.476;8.484;2022-10-26T07:36:55;4.17;;;2.50;;
12947;SDS011;6539;49.476;8.484;2022-10-26T07:39:26;6.60;;;2.53;;
12947;SDS011;6539;49.476;8.484;2022-10-26T07:41:56;5.17;;;2.87;;
12947;SDS011;6539;49.476;8.484;2022-10-26T07:44:25;5.10;;;3.20;;
12947;SDS011;6539;49.476;8.484;2022-10-26T07:46:56;8.23;;;3.17;;
12947;SDS011;6539;49.476;8.484;2022-10-26T07:49:22;7.90;;;2.90;;
12947;SDS011;6539;49.476;8.484;2022-10-26T07:51:50;7.30;;;3.30;;
12947;SDS011;6539;49.476;8.484;2022-10-26T07:54:16;7.77;;;2.93;;
12947;SDS011;6539;49.476;8.484;2022-10-26T07:56:42;6.57;;;2.60;;
12947;SDS011;6539;49.476;8.484;2022-10-26T07:59:16;5.07;;;3.17;;
12947;SDS011;6539;49.476;8.484;2022-10-26T08:01:42;9.33;;;2.80;;
12947;SDS011;6539;49.476;8.484;2022-10-26T08:04:09;10.07;;;2.90;;
12947;SDS011;6539;49.476;8.484;2022-10-26T08:06:34;6.50;;;3.20;;
12947;SDS011;6539;49.476;8.484;2022-10-26T08:09:01;7.30;;;3.60;;
12947;SDS011;6539;49.476;8.484;2022-10-26T08:11:29;6.77;;;3.07;;
12947;SDS011;6539;49.476;8.484;2022-10-26T08:13:54;5.10;;;3.03;;
12947;SDS011;6539;49.476;8.484;2022-10-26T08:16:20;4.50;;;2.83;;
12947;SDS011;6539;49.476;8.484;2022-10-26T08:18:51;5.43;;;3.07;;
12947;SDS011;6539;49.476;8.484;2022-10-26T08:21:17;7.10;;;3.40;;
12947;SDS011;6539;49.476;8.484;2022-10-26T08:23:43;8.47;;;3.20;;
12947;SDS011;6539;49.476;8.484;2022-10-26T08:26:09;6.83;;;2.80;;
12947;SDS011;6539;49.476;8.484;2022-10-26T08:28:38;6.07;;;3.27;;
12947;SDS011;6539;49.476;8.484;2022-10-26T08:31:04;5.47;;;3.40;;
12947;SDS011;6539;49.476;8.484;2022-10-26T08:33:31;5.37;;;2.97;;
12947;SDS011;6539;49.476;8.484;2022-10-26T08:35:58;6.03;;;2.80;;
12947;SDS011;6539;49.476;8.484;2022-10-26T08:38:27;3.77;;;2.93;;
12947;SDS011;6539;49.476;8.484;2022-10-26T08:40:54;7.13;;;3.10;;
12947;SDS011;6539;49.476;8.484;2022-10-26T08:46:23;7.70;;;2.70;;
12947;SDS011;6539;49.476;8.484;2022-10-26T08:48:59;6.70;;;3.27;;
12947;SDS011;6539;49.476;8.484;2022-10-26T08:51:46;5.23;;;2.77;;
12947;SDS011;6539;49.476;8.484;2022-10-26T08:56:56;5.20;;;2.90;;
12947;SDS011;6539;49.476;8.484;2022-10-26T08:59:32;4.03;;;2.83;;
12947;SDS011;6539;49.476;8.484;2022-10-26T09:02:14;4.50;;;2.73;;
12947;SDS011;6539;49.476;8.484;2022-10-26T09:04:42;4.97;;;2.40;;
12947;SDS011;6539;49.476;8.484;2022-10-26T09:10:03;10.50;;;2.70;;
12947;SDS011;6539;49.476;8.484;2022-10-26T09:13:10;6.60;;;2.93;;
12947;SDS011;6539;49.476;8.484;2022-10-26T09:15:52;8.53;;;3.47;;
12947;SDS011;6539;49.476;8.484;2022-10-26T09:29:50;4.50;;;2.57;;
12947;SDS011;6539;49.476;8.484;2022-10-26T09:32:19;5.03;;;3.00;;
12947;SDS011;6539;49.476;8.484;2022-10-26T09:35:24;11.37;;;3.30;;
12947;SDS011;6539;49.476;8.484;2022-10-26T09:38:43;8.67;;;3.50;;
12947;SDS011;6539;49.476;8.484;2022-10-26T09:41:20;8.67;;;3.20;;
12947;SDS011;6539;49.476;8.484;2022-10-26T09:46:59;12.10;;;5.60;;
12947;SDS011;6539;49.476;8.484;2022-10-26T09:49:46;7.27;;;3.40;;
12947;SDS011;6539;49.476;8.484;2022-10-26T09:52:20;7.40;;;3.60;;
12947;SDS011;6539;49.476;8.484;2022-10-26T09:54:48;6.53;;;3.60;;
12947;SDS011;6539;49.476;8.484;2022-10-26T09:57:14;7.00;;;3.00;;
12947;SDS011;6539;49.476;8.484;2022-10-26T09:59:44;5.40;;;3.33;;
12947;SDS011;6539;49.476;8.484;2022-10-26T10:11:06;5.27;;;2.57;;
12947;SDS011;6539;49.476;8.484;2022-10-26T10:13:38;6.50;;;3.30;;
12947;SDS011;6539;49.476;8.484;2022-10-26T10:19:00;6.17;;;4.33;;
12947;SDS011;6539;49.476;8.484;2022-10-26T10:21:44;5.43;;;2.77;;
12947;SDS011;6539;49.476;8.484;2022-10-26T10:24:21;7.30;;;3.77;;
12947;SDS011;6539;49.476;8.484;2022-10-26T10:27:02;7.13;;;3.23;;
12947;SDS011;6539;49.476;8.484;2022-10-26T10:29:48;5.57;;;3.10;;
12947;SDS011;6539;49.476;8.484;2022-10-26T10:34:50;5.87;;;2.77;;
12947;SDS011;6539;49.476;8.484;2022-10-26T10:37:24;7.83;;;2.80;;
12947;SDS011;6539;49.476;8.484;2022-10-26T10:42:45;5.53;;;2.73;;
12947;SDS011;6539;49.476;8.484;2022-10-26T10:45:20;6.63;;;2.90;;
12947;SDS011;6539;49.476;8.484;2022-10-26T10:48:15;5.40;;;3.03;;
12947;SDS011;6539;49.476;8.484;2022-10-26T10:56:27;5.40;;;3.00;;
12947;SDS011;6539;49.476;8.484;2022-10-26T10:59:25;9.23;;;3.10;;
12947;SDS011;6539;49.476;8.484;2022-10-26T11:07:45;6.83;;;2.73;;
12947;SDS011;6539;49.476;8.484;2022-10-26T11:10:19;5.90;;;2.80;;
12947;SDS011;6539;49.476;8.484;2022-10-26T11:12:52;10.67;;;3.20;;
12947;SDS011;6539;49.476;8.484;2022-10-26T11:15:29;5.30;;;2.20;;
12947;SDS011;6539;49.476;8.484;2022-10-26T11:18:11;5.70;;;2.93;;
12947;SDS011;6539;49.476;8.484;2022-10-26T11:20:57;4.23;;;2.50;;
12947;SDS011;6539;49.476;8.484;2022-10-26T11:24:00;4.53;;;2.50;;
12947;SDS011;6539;49.476;8.484;2022-10-26T11:26:54;4.27;;;2.60;;
12947;SDS011;6539;49.476;8.484;2022-10-26T11:38:32;6.43;;;2.80;;
12947;SDS011;6539;49.476;8.484;2022-10-26T11:41:36;7.50;;;2.93;;
12947;SDS011;6539;49.476;8.484;2022-10-26T11:44:34;9.27;;;2.67;;
12947;SDS011;6539;49.476;8.484;2022-10-26T11:50:20;5.70;;;3.07;;
12947;SDS011;6539;49.476;8.484;2022-10-26T11:53:01;5.37;;;2.80;;
12947;SDS011;6539;49.476;8.484;2022-10-26T11:55:41;4.93;;;2.53;;
12947;SDS011;6539;49.476;8.484;2022-10-26T11:58:18;6.07;;;2.50;;
12947;SDS011;6539;49.476;8.484;2022-10-26T12:01:01;4.80;;;2.87;;
12947;SDS011;6539;49.476;8.484;2022-10-26T12:03:38;5.73;;;2.80;;
12947;SDS011;6539;49.476;8.484;2022-10-26T12:06:15;7.57;;;2.80;;
12947;SDS011;6539;49.476;8.484;2022-10-26T12:09:02;8.93;;;3.27;;
12947;SDS011;6539;49.476;8.484;2022-10-26T12:14:23;11.67;;;3.40;;
12947;SDS011;6539;49.476;8.484;2022-10-26T12:17:33;9.87;;;2.87;;
12947;SDS011;6539;49.476;8.484;2022-10-26T12:20:13;5.23;;;2.87;;
12947;SDS011;6539;49.476;8.484;2022-10-26T12:23:27;7.57;;;2.77;;
12947;SDS011;6539;49.476;8.484;2022-10-26T12:39:37;6.13;;;2.40;;
12947;SDS011;6539;49.476;8.484;2022-10-26T12:58:23;6.63;;;3.07;;
12947;SDS011;6539;49.476;8.484;2022-10-26T13:01:26;6.50;;;2.80;;
12947;SDS011;6539;49.476;8.484;2022-10-26T13:07:22;4.80;;;2.90;;
12947;SDS011;6539;49.476;8.484;2022-10-26T13:12:37;7.70;;;2.87;;
12947;SDS011;6539;49.476;8.484;2022-10-26T13:15:51;5.67;;;3.10;;
12947;SDS011;6539;49.476;8.484;2022-10-26T13:24:00;8.40;;;2.83;;
12947;SDS011;6539;49.476;8.484;2022-10-26T13:26:26;4.73;;;2.20;;
12947;SDS011;6539;49.476;8.484;2022-10-26T13:28:58;7.40;;;3.00;;
12947;SDS011;6539;49.476;8.484;2022-10-26T13:34:05;7.63;;;3.20;;
12947;SDS011;6539;49.476;8.484;2022-10-26T13:39:48;4.93;;;2.63;;
12947;SDS011;6539;49.476;8.484;2022-10-26T13:42:20;6.07;;;3.10;;
12947;SDS011;6539;49.476;8.484;2022-10-26T13:45:07;6.03;;;3.10;;
12947;SDS011;6539;49.476;8.484;2022-10-26T13:47:42;9.17;;;2.80;;
12947;SDS011;6539;49.476;8.484;2022-10-26T13:51:09;6.63;;;2.70;;
12947;SDS011;6539;49.476;8.484;2022-10-26T13:59:33;4.23;;;2.20;;
12947;SDS011;6539;49.476;8.484;2022-10-26T14:02:26;5.50;;;2.27;;
12947;SDS011;6539;49.476;8.484;2022-10-26T14:05:01;6.73;;;2.90;;
12947;SDS011;6539;49.476;8.484;2022-10-26T14:07:33;6.03;;;2.63;;
12947;SDS011;6539;49.476;8.484;2022-10-26T14:10:06;5.87;;;2.67;;
12947;SDS011;6539;49.476;8.484;2022-10-26T14:13:08;8.33;;;2.53;;
12947;SDS011;6539;49.476;8.484;2022-10-26T14:15:41;7.47;;;2.40;;
12947;SDS011;6539;49.476;8.484;2022-10-26T14:18:14;5.07;;;2.30;;
12947;SDS011;6539;49.476;8.484;2022-10-26T14:20:49;4.83;;;2.53;;
12947;SDS011;6539;49.476;8.484;2022-10-26T14:23:31;7.63;;;2.30;;
12947;SDS011;6539;49.476;8.484;2022-10-26T14:26:29;5.10;;;3.60;;
12947;SDS011;6539;49.476;8.484;2022-10-26T14:29:17;5.90;;;2.80;;
12947;SDS011;6539;49.476;8.484;2022-10-26T14:31:49;8.23;;;2.60;;
12947;SDS011;6539;49.476;8.484;2022-10-26T14:34:16;6.67;;;3.20;;
12947;SDS011;6539;49.476;8.484;2022-10-26T14:36:51;7.90;;;3.00;;
12947;SDS011;6539;49.476;8.484;2022-10-26T14:42:02;7.03;;;2.20;;
12947;SDS011;6539;49.476;8.484;2022-10-26T14:44:52;5.67;;;2.83;;
12947;SDS011;6539;49.476;8.484;2022-10-26T14:47:22;3.00;;;1.77;;
12947;SDS011;6539;49.476;8.484;2022-10-26T14:49:57;5.13;;;2.67;;
12947;SDS011;6539;49.476;8.484;2022-10-26T14:52:26;8.23;;;2.90;;
12947;SDS011;6539;49.476;8.484;2022-10-26T14:55:11;6.77;;;2.80;;
12947;SDS011;6539;49.476;8.484;2022-10-26T14:57:43;6.20;;;2.70;;
12947;SDS011;6539;49.476;8.484;2022-10-26T15:00:19;7.27;;;2.57;;
12947;SDS011;6539;49.476;8.484;2022-10-26T15:02:54;4.37;;;2.43;;
12947;SDS011;6539;49.476;8.484;2022-10-26T15:07:54;7.83;;;2.63;;
12947;SDS011;6539;49.476;8.484;2022-10-26T15:15:49;4.57;;;2.33;;
12947;SDS011;6539;49.476;8.484;2022-10-26T15:18:27;7.63;;;2.80;;
12947;SDS011;6539;49.476;8.484;2022-10-26T15:21:01;6.13;;;3.20;;
12947;SDS011;6539;49.476;8.484;2022-10-26T15:23:31;8.83;;;3.13;;
12947;SDS011;6539;49.476;8.484;2022-10-26T15:26:00;5.33;;;2.43;;
12947;SDS011;6539;49.476;8.484;2022-10-26T15:28:28;10.43;;;2.73;;
12947;SDS011;6539;49.476;8.484;2022-10-26T15:31:07;11.93;;;2.97;;
12947;SDS011;6539;49.476;8.484;2022-10-26T15:36:30;5.97;;;2.80;;
12947;SDS011;6539;49.476;8.484;2022-10-26T15:38:59;7.10;;;3.07;;
12947;SDS011;6539;49.476;8.484;2022-10-26T15:43:59;8.60;;;3.30;;
12947;SDS011;6539;49.476;8.484;2022-10-26T15:46:35;8.93;;;3.00;;
12947;SDS011;6539;49.476;8.484;2022-10-26T15:49:07;7.63;;;3.40;;
12947;SDS011;6539;49.476;8.484;2022-10-26T15:51:46;5.97;;;3.53;;
12947;SDS011;6539;49.476;8.484;2022-10-26T15:54:13;10.77;;;3.27;;
12947;SDS011;6539;49.476;8.484;2022-10-26T15:56:42;8.03;;;3.43;;
12947;SDS011;6539;49.476;8.484;2022-10-26T15:59:17;9.20;;;3.67;;
12947;SDS011;6539;49.476;8.484;2022-10-26T16:01:44;8.60;;;3.60;;
12947;SDS011;6539;49.476;8.484;2022-10-26T16:04:10;12.73;;;4.17;;
12947;SDS011;6539;49.476;8.484;2022-10-26T16:06:39;9.07;;;3.60;;
12947;SDS011;6539;49.476;8.484;2022-10-26T16:09:14;8.93;;;3.60;;
12947;SDS011;6539;49.476;8.484;2022-10-26T16:11:42;6.43;;;3.33;;
12947;SDS011;6539;49.476;8.484;2022-10-26T16:14:09;6.30;;;3.20;;
12947;SDS011;6539;49.476;8.484;2022-10-26T16:16:36;7.03;;;3.53;;
12947;SDS011;6539;49.476;8.484;2022-10-26T16:19:02;5.27;;;2.87;;
12947;SDS011;6539;49.476;8.484;2022-10-26T16:21:28;8.57;;;3.87;;
12947;SDS011;6539;49.476;8.484;2022-10-26T16:23:55;6.77;;;3.87;;
12947;SDS011;6539;49.476;8.484;2022-10-26T16:26:21;7.57;;;3.90;;
12947;SDS011;6539;49.476;8.484;2022-10-26T16:28:48;7.23;;;3.70;;
12947;SDS011;6539;49.476;8.484;2022-10-26T16:31:17;19.60;;;12.93;;
12947;SDS011;6539;49.476;8.484;2022-10-26T16:33:46;8.37;;;4.10;;
12947;SDS011;6539;49.476;8.484;2022-10-26T16:36:12;9.13;;;3.33;;
12947;SDS011;6539;49.476;8.484;2022-10-26T16:38:39;6.70;;;3.80;;
12947;SDS011;6539;49.476;8.484;2022-10-26T16:41:08;7.37;;;3.43;;
12947;SDS011;6539;49.476;8.484;2022-10-26T16:43:40;8.17;;;3.83;;
12947;SDS011;6539;49.476;8.484;2022-10-26T16:46:09;8.97;;;4.17;;
12947;SDS011;6539;49.476;8.484;2022-10-26T16:48:40;6.33;;;4.07;;
12947;SDS011;6539;49.476;8.484;2022-10-26T16:51:18;7.37;;;4.67;;
12947;SDS011;6539;49.476;8.484;2022-10-26T16:53:51;10.90;;;5.93;;
12947;SDS011;6539;49.476;8.484;2022-10-26T16:56:20;5.77;;;3.87;;
12947;SDS011;6539;49.476;8.484;2022-10-26T16:58:51;6.10;;;3.77;;
12947;SDS011;6539;49.476;8.484;2022-10-26T17:01:18;5.80;;;3.20;;
12947;SDS011;6539;49.476;8.484;2022-10-26T17:03:48;9.53;;;3.20;;
12947;SDS011;6539;49.476;8.484;2022-10-26T17:06:17;7.50;;;3.30;;
12947;SDS011;6539;49.476;8.484;2022-10-26T17:08:44;8.00;;;3.67;;
12947;SDS011;6539;49.476;8.484;2022-10-26T17:11:17;12.67;;;3.50;;
12947;SDS011;6539;49.476;8.484;2022-10-26T17:13:45;7.93;;;3.63;;
12947;SDS011;6539;49.476;8.484;2022-10-26T17:16:16;7.43;;;3.83;;
12947;SDS011;6539;49.476;8.484;2022-10-26T17:18:45;8.53;;;3.80;;
12947;SDS011;6539;49.476;8.484;2022-10-26T17:21:16;6.03;;;3.63;;
12947;SDS011;6539;49.476;8.484;2022-10-26T17:23:44;6.63;;;3.80;;
12947;SDS011;6539;49.476;8.484;2022-10-26T17:26:10;8.53;;;4.30;;
12947;SDS011;6539;49.476;8.484;2022-10-26T17:28:38;9.33;;;4.03;;
12947;SDS011;6539;49.476;8.484;2022-10-26T17:31:05;9.73;;;4.17;;
12947;SDS011;6539;49.476;8.484;2022-10-26T17:33:41;8.57;;;3.50;;
12947;SDS011;6539;49.476;8.484;2022-10-26T17:36:15;6.63;;;3.53;;
12947;SDS011;6539;49.476;8.484;2022-10-26T17:38:44;7.13;;;3.67;;
12947;SDS011;6539;49.476;8.484;2022-10-26T17:41:15;11.93;;;4.37;;
12947;SDS011;6539;49.476;8.484;2022-10-26T17:43:45;14.37;;;5.97;;
12947;SDS011;6539;49.476;8.484;2022-10-26T17:46:14;10.70;;;5.03;;
12947;SDS011;6539;49.476;8.484;2022-10-26T17:48:46;5.90;;;3.60;;
12947;SDS011;6539;49.476;8.484;2022-10-26T17:51:13;6.83;;;3.73;;
12947;SDS011;6539;49.476;8.484;2022-10-26T17:53:44;7.77;;;4.50;;
12947;SDS011;6539;49.476;8.484;2022-10-26T17:56:13;8.30;;;4.13;;
12947;SDS011;6539;49.476;8.484;2022-10-26T17:58:53;5.93;;;4.03;;
12947;SDS011;6539;49.476;8.484;2022-10-26T18:01:25;10.60;;;5.47;;
12947;SDS011;6539;49.476;8.484;2022-10-26T18:03:55;8.07;;;4.00;;
12947;SDS011;6539;49.476;8.484;2022-10-26T18:06:22;6.03;;;3.50;;
12947;SDS011;6539;49.476;8.484;2022-10-26T18:08:51;6.20;;;3.63;;
12947;SDS011;6539;49.476;8.484;2022-10-26T18:11:20;6.63;;;4.00;;
12947;SDS011;6539;49.476;8.484;2022-10-26T18:13:51;10.87;;;4.77;;
12947;SDS011;6539;49.476;8.484;2022-10-26T18:16:20;8.17;;;4.30;;
12947;SDS011;6539;49.476;8.484;2022-10-26T18:19:02;7.33;;;4.10;;
12947;SDS011;6539;49.476;8.484;2022-10-26T18:21:30;7.73;;;5.23;;
12947;SDS011;6539;49.476;8.484;2022-10-26T18:24:02;6.07;;;3.70;;
12947;SDS011;6539;49.476;8.484;2022-10-26T18:26:29;13.27;;;5.37;;
12947;SDS011;6539;49.476;8.484;2022-10-26T18:28:58;10.17;;;5.10;;
12947;SDS011;6539;49.476;8.484;2022-10-26T18:31:26;10.53;;;4.33;;
12947;SDS011;6539;49.476;8.484;2022-10-26T18:33:59;11.13;;;4.30;;
12947;SDS011;6539;49.476;8.484;2022-10-26T18:36:28;9.80;;;5.00;;
12947;SDS011;6539;49.476;8.484;2022-10-26T18:38:55;9.60;;;4.60;;
12947;SDS011;6539;49.476;8.484;2022-10-26T18:41:24;12.67;;;4.77;;